Relevés horaires Bouveret (Suisse)


Relevés horaires à Bouveret - Mercredi 07 Févr. 2018
Heure UTC1 Température [°C] Vent [km/h] Hum. [%] Pres.4 [hPa] Visi. [Km] Nébu. [octa] Préc.5 [mm] Cond.
2m. Res. Ros. Dir.2 Vit. Moy. Raf.3
23:00 3.5 -0.1 -0.7 ONO 14.8 -- 25.9 74 1015.6(0.5/3h) -- -- -- --
22:00 3.5 -0.1 -0.6 ONO 14.8 -- 22.2 74 1015.3(0.5/3h) -- -- -- --
21:00 3.4 -0.2 -1.0 O 14.8 -- 31.5 73 1015.3(0.9/3h) -- -- -- --
20:00 3.3 -0.9 -0.5 O 18.5 -- 31.5 76 1015.1(1.4/3h) -- -- -- --
19:00 3.2 -1 -0.5 O 18.5 -- 27.8 77 1014.8(1.7/3h) -- -- -- --
18:00 3.2 -1 -0.1 O 18.5 -- 31.5 79 1014.4(1.7/3h) -- -- -- --
17:00 3.3 -0.9 -0.4 ONO 18.5 -- 25.9 77 1013.6(1.3/3h) -- -- -- --
16:00 3.4 -0.8 -0.2 O 18.5 -- 27.8 77 1013(0.8/3h) -- -- -- --
15:00 3.7 0.9 -0.1 NO 11.1 -- 31.5 76 1012.5(0.5/3h) -- -- -- --
14:00 3.5 -0.1 -0.3 NNO 14.8 -- 31.5 76 1012.2(0.2/3h) -- -- -- --
13:00 3.5 -1.1 0.3 NNO 22.2 -- 27.8 80 1012.1(0.4/3h) -- -- -- --
12:00 3.8 0 0.2 NNO 16.7 -- 24.1 77 1012(0.8/3h) -- -- -- --
11:00 3.8 1 -0.5 ONO 11.1 -- 24.1 73 1012(1.4/3h) -- -- -- --
10:00 3.7 -0.1 -0.2 NO 16.7 -- 22.2 76 1011.7(1.3/3h) -- -- -- --
09:00 3.7 0.5 -0.1 NNO 13.0 -- 18.5 76 1011.2(1.0/3h) -- -- -- --
08:00 3.6 0.1 -0.3 N 14.8 -- 18.5 76 1010.5(0.4/3h) -- -- -- --
07:00 3.8 1.4 -0.2 ONO 9.3 -- 14.8 75 1010.3(0.2/3h) -- -- -- --
06:00 4.0 1.6 0.1 NNO 9.3 -- 18.5 76 1010.1(-0.1/3h) -- -- -- --
05:00 3.8 3.8 -0.5 NNO 0.0 -- 9.3 73 1010.1(-0.3/3h) -- -- -- --
04:00 3.4 3.4 1.1 SO 1.9 -- 1.9 85 1010.2(-0.4/3h) -- -- -- --
03:00 2.6 2.6 0.9 SSE 1.9 -- 11.1 89 1010.4(-0.3/3h) -- -- -- --
02:00 2.1 0.5 0.5 SE 5.6 -- 9.3 89 1010.7(0.1/3h) -- -- -- --
01:00 3.3 3.3 0.9 S 1.9 -- 11.1 84 1010.6(0.4/3h) -- -- -- --
00:00 3.5 1 1.5 NO 9.3 -- 14.8 87 1010.6(0.6/3h) -- -- -- --

1 Coordinated Universal Time. Actuellement il est 15:00 locale et 13:00 UTC.

2 Le vent souffle depuis la direction indiquée vers la direction oposée.

3 Les rafales max. sont disponible 40 min après l'heure du relevé.

4 Pour les stations d'altitude (plus de 600m) le géopotentiel du niveau le plus proche de la pression obligatoire est indiqué.

5 Les stations disposant d'un diffuseur peuvent indiquer "trace". Cela signifie que des précipitations ont touchés le sol mais que la quantité est inférieure à 0.1 mm.

Copyright

Les données affichées sur cette page sont la propriété exclusive de Météo Suisse.

Récapitulatif de la journée
Température [°C] Vent [km/h] Ensoleillement4 [h] Precipitations totale5 [mm] Pression [Hpa]
Min1 Max.2 Moy.3 Max. Min Max.
1.6 4.0 0 31.5 0 h 0 min 0 1010.1 1015.6

1 Température minimale relevée entre 18:00 UTC la veille et 18:00 UTC le jour donné.

2 Température maximale relevée entre 06:00 UTC le jour donné et 06:00 UTC le lendemain.

3 Vent moyen de la journée basé sur les relevés horaires.

4 Ensoleillement en heures relevé entre 06:00 UTC la veille et 06:00 UTC le jour donné.

5 Précipitations totales tombées entre 06:00 UTC la jour donné et 06:00 UTC le lendemain.

Graphiques horaires